sensor_id;sensor_type;location;lat;lon;timestamp;P1;durP1;ratioP1;P2;durP2;ratioP2
71183;SDS011;58887;51.980;4.464;2023-02-28T00:02:41;4.66;;;4.66;;
71183;SDS011;58887;51.980;4.464;2023-02-28T00:05:12;6.30;;;6.30;;
71183;SDS011;58887;51.980;4.464;2023-02-28T00:07:41;4.56;;;4.56;;
71183;SDS011;58887;51.980;4.464;2023-02-28T00:15:58;27.03;;;27.03;;
71183;SDS011;58887;51.980;4.464;2023-02-28T00:18:30;46.83;;;46.83;;
71183;SDS011;58887;51.980;4.464;2023-02-28T00:20:56;65.31;;;65.31;;
71183;SDS011;58887;51.980;4.464;2023-02-28T00:23:25;70.35;;;70.35;;
71183;SDS011;58887;51.980;4.464;2023-02-28T00:25:53;81.34;;;81.34;;
71183;SDS011;58887;51.980;4.464;2023-02-28T00:28:19;110.31;;;110.31;;
71183;SDS011;58887;51.980;4.464;2023-02-28T00:30:48;131.53;;;131.53;;
71183;SDS011;58887;51.980;4.464;2023-02-28T00:33:15;131.51;;;131.51;;
71183;SDS011;58887;51.980;4.464;2023-02-28T00:38:50;161.05;;;161.05;;
71183;SDS011;58887;51.980;4.464;2023-02-28T00:41:20;115.02;;;115.02;;
71183;SDS011;58887;51.980;4.464;2023-02-28T00:43:48;142.46;;;142.46;;
71183;SDS011;58887;51.980;4.464;2023-02-28T00:46:16;189.89;;;189.89;;
71183;SDS011;58887;51.980;4.464;2023-02-28T00:51:24;199.86;;;199.86;;
71183;SDS011;58887;51.980;4.464;2023-02-28T00:53:53;180.38;;;180.38;;
71183;SDS011;58887;51.980;4.464;2023-02-28T00:58:48;196.64;;;196.64;;
71183;SDS011;58887;51.980;4.464;2023-02-28T01:01:14;192.78;;;192.78;;
71183;SDS011;58887;51.980;4.464;2023-02-28T01:03:40;181.89;;;181.89;;
71183;SDS011;58887;51.980;4.464;2023-02-28T01:06:06;195.80;;;195.80;;
71183;SDS011;58887;51.980;4.464;2023-02-28T01:08:32;173.20;;;173.20;;
71183;SDS011;58887;51.980;4.464;2023-02-28T01:10:58;182.20;;;182.20;;
71183;SDS011;58887;51.980;4.464;2023-02-28T01:13:45;168.35;;;168.35;;
71183;SDS011;58887;51.980;4.464;2023-02-28T01:16:12;146.44;;;146.44;;
71183;SDS011;58887;51.980;4.464;2023-02-28T01:18:41;143.46;;;143.46;;
71183;SDS011;58887;51.980;4.464;2023-02-28T01:21:09;136.34;;;136.34;;
71183;SDS011;58887;51.980;4.464;2023-02-28T01:23:37;125.69;;;125.69;;
71183;SDS011;58887;51.980;4.464;2023-02-28T01:26:06;122.73;;;122.73;;
71183;SDS011;58887;51.980;4.464;2023-02-28T01:28:46;116.73;;;116.73;;
71183;SDS011;58887;51.980;4.464;2023-02-28T01:31:13;98.01;;;98.01;;
71183;SDS011;58887;51.980;4.464;2023-02-28T01:33:39;87.44;;;87.44;;
71183;SDS011;58887;51.980;4.464;2023-02-28T01:36:09;79.99;;;79.99;;
71183;SDS011;58887;51.980;4.464;2023-02-28T01:38:38;91.36;;;91.36;;
71183;SDS011;58887;51.980;4.464;2023-02-28T01:41:05;91.74;;;91.74;;
71183;SDS011;58887;51.980;4.464;2023-02-28T01:43:52;82.23;;;82.23;;
71183;SDS011;58887;51.980;4.464;2023-02-28T01:46:38;72.75;;;72.75;;
71183;SDS011;58887;51.980;4.464;2023-02-28T01:49:11;65.79;;;65.79;;
71183;SDS011;58887;51.980;4.464;2023-02-28T01:51:48;75.47;;;75.47;;
71183;SDS011;58887;51.980;4.464;2023-02-28T01:54:18;89.33;;;89.33;;
71183;SDS011;58887;51.980;4.464;2023-02-28T01:56:50;92.89;;;92.89;;
71183;SDS011;58887;51.980;4.464;2023-02-28T02:02:23;77.33;;;77.33;;
71183;SDS011;58887;51.980;4.464;2023-02-28T02:07:20;44.19;;;44.19;;
71183;SDS011;58887;51.980;4.464;2023-02-28T02:09:47;36.78;;;36.78;;
71183;SDS011;58887;51.980;4.464;2023-02-28T02:12:17;32.23;;;32.23;;
71183;SDS011;58887;51.980;4.464;2023-02-28T02:17:42;34.67;;;34.67;;
71183;SDS011;58887;51.980;4.464;2023-02-28T02:25:39;33.01;;;33.01;;
71183;SDS011;58887;51.980;4.464;2023-02-28T02:28:35;44.88;;;44.88;;
71183;SDS011;58887;51.980;4.464;2023-02-28T02:37:25;79.93;;;79.93;;
71183;SDS011;58887;51.980;4.464;2023-02-28T02:40:09;104.86;;;104.86;;
71183;SDS011;58887;51.980;4.464;2023-02-28T02:42:55;134.15;;;134.15;;
71183;SDS011;58887;51.980;4.464;2023-02-28T02:45:46;141.83;;;141.83;;
71183;SDS011;58887;51.980;4.464;2023-02-28T02:48:29;132.47;;;132.47;;
71183;SDS011;58887;51.980;4.464;2023-02-28T02:51:00;118.44;;;118.44;;
71183;SDS011;58887;51.980;4.464;2023-02-28T02:53:34;95.64;;;95.64;;
71183;SDS011;58887;51.980;4.464;2023-02-28T02:56:07;78.29;;;78.29;;
71183;SDS011;58887;51.980;4.464;2023-02-28T02:58:37;65.56;;;65.56;;
71183;SDS011;58887;51.980;4.464;2023-02-28T03:01:07;43.09;;;43.09;;
71183;SDS011;58887;51.980;4.464;2023-02-28T03:03:41;40.40;;;40.40;;
71183;SDS011;58887;51.980;4.464;2023-02-28T03:06:07;39.08;;;39.08;;
71183;SDS011;58887;51.980;4.464;2023-02-28T03:08:36;43.92;;;43.92;;
71183;SDS011;58887;51.980;4.464;2023-02-28T03:11:09;67.82;;;67.82;;
71183;SDS011;58887;51.980;4.464;2023-02-28T03:25:11;15.59;;;15.59;;
71183;SDS011;58887;51.980;4.464;2023-02-28T03:27:58;13.54;;;13.54;;
71183;SDS011;58887;51.980;4.464;2023-02-28T03:33:50;9.19;;;9.19;;
71183;SDS011;58887;51.980;4.464;2023-02-28T03:36:23;5.71;;;5.71;;
71183;SDS011;58887;51.980;4.464;2023-02-28T03:41:38;5.13;;;5.13;;
71183;SDS011;58887;51.980;4.464;2023-02-28T03:47:12;4.28;;;4.28;;
71183;SDS011;58887;51.980;4.464;2023-02-28T03:49:49;3.82;;;3.82;;
71183;SDS011;58887;51.980;4.464;2023-02-28T03:52:23;3.72;;;3.72;;
71183;SDS011;58887;51.980;4.464;2023-02-28T03:54:54;3.50;;;3.50;;
71183;SDS011;58887;51.980;4.464;2023-02-28T04:00:27;3.57;;;3.57;;
71183;SDS011;58887;51.980;4.464;2023-02-28T04:02:58;3.28;;;3.28;;
71183;SDS011;58887;51.980;4.464;2023-02-28T04:05:24;3.17;;;3.17;;
71183;SDS011;58887;51.980;4.464;2023-02-28T04:07:51;3.73;;;3.73;;
71183;SDS011;58887;51.980;4.464;2023-02-28T04:10:18;3.51;;;3.51;;
71183;SDS011;58887;51.980;4.464;2023-02-28T04:12:43;3.64;;;3.64;;
71183;SDS011;58887;51.980;4.464;2023-02-28T04:15:09;3.49;;;3.48;;
71183;SDS011;58887;51.980;4.464;2023-02-28T04:17:36;3.41;;;3.41;;
71183;SDS011;58887;51.980;4.464;2023-02-28T04:20:03;3.93;;;3.93;;
71183;SDS011;58887;51.980;4.464;2023-02-28T04:22:34;3.69;;;3.69;;
71183;SDS011;58887;51.980;4.464;2023-02-28T04:25:01;3.69;;;3.69;;
71183;SDS011;58887;51.980;4.464;2023-02-28T04:27:26;3.90;;;3.90;;
71183;SDS011;58887;51.980;4.464;2023-02-28T04:29:53;3.87;;;3.87;;
71183;SDS011;58887;51.980;4.464;2023-02-28T04:32:18;3.80;;;3.79;;
71183;SDS011;58887;51.980;4.464;2023-02-28T04:34:43;3.41;;;3.41;;
71183;SDS011;58887;51.980;4.464;2023-02-28T04:37:09;3.30;;;3.30;;
71183;SDS011;58887;51.980;4.464;2023-02-28T04:39:35;3.76;;;3.76;;
71183;SDS011;58887;51.980;4.464;2023-02-28T04:42:01;3.47;;;3.47;;
71183;SDS011;58887;51.980;4.464;2023-02-28T04:44:28;3.49;;;3.49;;
71183;SDS011;58887;51.980;4.464;2023-02-28T04:46:53;3.32;;;3.32;;
71183;SDS011;58887;51.980;4.464;2023-02-28T04:49:19;3.02;;;3.02;;
71183;SDS011;58887;51.980;4.464;2023-02-28T04:51:44;3.28;;;3.28;;
71183;SDS011;58887;51.980;4.464;2023-02-28T04:54:10;3.39;;;3.39;;
71183;SDS011;58887;51.980;4.464;2023-02-28T04:56:35;3.54;;;3.54;;
71183;SDS011;58887;51.980;4.464;2023-02-28T04:59:01;3.51;;;3.51;;
71183;SDS011;58887;51.980;4.464;2023-02-28T05:01:27;3.51;;;3.51;;
71183;SDS011;58887;51.980;4.464;2023-02-28T05:03:55;3.79;;;3.79;;
71183;SDS011;58887;51.980;4.464;2023-02-28T05:06:23;4.80;;;4.80;;
71183;SDS011;58887;51.980;4.464;2023-02-28T05:08:51;6.93;;;6.93;;
71183;SDS011;58887;51.980;4.464;2023-02-28T05:11:20;10.66;;;10.66;;
71183;SDS011;58887;51.980;4.464;2023-02-28T05:14:00;36.78;;;36.78;;
71183;SDS011;58887;51.980;4.464;2023-02-28T05:16:30;53.77;;;53.77;;
71183;SDS011;58887;51.980;4.464;2023-02-28T05:18:57;51.35;;;51.35;;
71183;SDS011;58887;51.980;4.464;2023-02-28T05:21:23;50.68;;;50.68;;
71183;SDS011;58887;51.980;4.464;2023-02-28T05:23:50;68.15;;;68.15;;
71183;SDS011;58887;51.980;4.464;2023-02-28T05:26:17;61.73;;;61.73;;
71183;SDS011;58887;51.980;4.464;2023-02-28T05:28:43;49.37;;;49.37;;
71183;SDS011;58887;51.980;4.464;2023-02-28T05:31:10;46.76;;;46.76;;
71183;SDS011;58887;51.980;4.464;2023-02-28T05:33:36;50.08;;;50.08;;
71183;SDS011;58887;51.980;4.464;2023-02-28T05:36:02;55.48;;;55.48;;
71183;SDS011;58887;51.980;4.464;2023-02-28T05:38:29;57.03;;;57.03;;
71183;SDS011;58887;51.980;4.464;2023-02-28T05:40:54;73.84;;;73.84;;
71183;SDS011;58887;51.980;4.464;2023-02-28T05:43:22;102.98;;;102.98;;
71183;SDS011;58887;51.980;4.464;2023-02-28T05:45:48;110.13;;;110.13;;
71183;SDS011;58887;51.980;4.464;2023-02-28T05:48:14;116.95;;;116.95;;
71183;SDS011;58887;51.980;4.464;2023-02-28T05:50:40;127.12;;;127.12;;
71183;SDS011;58887;51.980;4.464;2023-02-28T05:53:08;116.98;;;116.98;;
71183;SDS011;58887;51.980;4.464;2023-02-28T05:55:34;110.88;;;110.88;;
71183;SDS011;58887;51.980;4.464;2023-02-28T05:58:01;92.44;;;92.44;;
71183;SDS011;58887;51.980;4.464;2023-02-28T06:00:26;97.72;;;97.72;;
71183;SDS011;58887;51.980;4.464;2023-02-28T06:02:59;127.70;;;127.70;;
71183;SDS011;58887;51.980;4.464;2023-02-28T06:05:27;150.65;;;150.65;;
71183;SDS011;58887;51.980;4.464;2023-02-28T06:07:54;135.36;;;135.36;;
71183;SDS011;58887;51.980;4.464;2023-02-28T06:10:19;127.73;;;127.37;;
71183;SDS011;58887;51.980;4.464;2023-02-28T06:12:45;96.23;;;96.23;;
71183;SDS011;58887;51.980;4.464;2023-02-28T06:15:14;137.91;;;137.91;;
71183;SDS011;58887;51.980;4.464;2023-02-28T06:17:42;149.96;;;149.96;;
71183;SDS011;58887;51.980;4.464;2023-02-28T06:20:09;141.68;;;141.68;;
71183;SDS011;58887;51.980;4.464;2023-02-28T06:22:38;107.79;;;107.79;;
71183;SDS011;58887;51.980;4.464;2023-02-28T06:25:04;60.67;;;60.67;;
71183;SDS011;58887;51.980;4.464;2023-02-28T06:27:32;55.69;;;55.69;;
71183;SDS011;58887;51.980;4.464;2023-02-28T06:29:59;8.93;;;8.93;;
71183;SDS011;58887;51.980;4.464;2023-02-28T06:32:24;5.18;;;5.18;;
71183;SDS011;58887;51.980;4.464;2023-02-28T06:34:50;5.38;;;5.38;;
71183;SDS011;58887;51.980;4.464;2023-02-28T06:37:17;8.02;;;8.02;;
71183;SDS011;58887;51.980;4.464;2023-02-28T06:39:43;4.73;;;4.73;;
71183;SDS011;58887;51.980;4.464;2023-02-28T06:42:08;4.39;;;4.39;;
71183;SDS011;58887;51.980;4.464;2023-02-28T06:44:34;3.74;;;3.74;;
71183;SDS011;58887;51.980;4.464;2023-02-28T06:47:03;3.61;;;3.61;;
71183;SDS011;58887;51.980;4.464;2023-02-28T06:49:31;5.14;;;5.14;;
71183;SDS011;58887;51.980;4.464;2023-02-28T06:51:59;8.34;;;8.34;;
71183;SDS011;58887;51.980;4.464;2023-02-28T06:54:24;8.77;;;8.77;;
71183;SDS011;58887;51.980;4.464;2023-02-28T06:56:50;16.34;;;16.34;;
71183;SDS011;58887;51.980;4.464;2023-02-28T06:59:16;49.72;;;49.72;;
71183;SDS011;58887;51.980;4.464;2023-02-28T07:01:42;36.00;;;36.00;;
71183;SDS011;58887;51.980;4.464;2023-02-28T07:04:09;22.87;;;22.87;;
71183;SDS011;58887;51.980;4.464;2023-02-28T07:06:34;21.59;;;21.59;;
71183;SDS011;58887;51.980;4.464;2023-02-28T07:09:01;25.56;;;25.56;;
71183;SDS011;58887;51.980;4.464;2023-02-28T07:11:27;29.86;;;29.86;;
71183;SDS011;58887;51.980;4.464;2023-02-28T07:13:54;26.82;;;26.82;;
71183;SDS011;58887;51.980;4.464;2023-02-28T07:16:21;23.97;;;23.97;;
71183;SDS011;58887;51.980;4.464;2023-02-28T07:18:48;9.86;;;9.86;;
71183;SDS011;58887;51.980;4.464;2023-02-28T07:21:15;9.21;;;9.21;;
71183;SDS011;58887;51.980;4.464;2023-02-28T07:23:43;26.40;;;26.40;;
71183;SDS011;58887;51.980;4.464;2023-02-28T07:26:11;22.58;;;22.58;;
71183;SDS011;58887;51.980;4.464;2023-02-28T07:28:42;12.89;;;12.89;;
71183;SDS011;58887;51.980;4.464;2023-02-28T07:31:09;33.62;;;33.62;;
71183;SDS011;58887;51.980;4.464;2023-02-28T07:33:35;48.91;;;48.91;;
71183;SDS011;58887;51.980;4.464;2023-02-28T07:36:03;28.92;;;28.92;;
71183;SDS011;58887;51.980;4.464;2023-02-28T07:38:30;18.70;;;18.70;;
71183;SDS011;58887;51.980;4.464;2023-02-28T07:40:55;14.29;;;14.29;;
71183;SDS011;58887;51.980;4.464;2023-02-28T07:43:21;19.01;;;19.01;;
71183;SDS011;58887;51.980;4.464;2023-02-28T07:45:47;19.36;;;19.36;;
71183;SDS011;58887;51.980;4.464;2023-02-28T07:48:12;13.45;;;13.45;;
71183;SDS011;58887;51.980;4.464;2023-02-28T07:50:37;9.66;;;9.66;;
71183;SDS011;58887;51.980;4.464;2023-02-28T07:53:03;7.27;;;7.27;;
71183;SDS011;58887;51.980;4.464;2023-02-28T07:55:30;7.18;;;7.18;;
71183;SDS011;58887;51.980;4.464;2023-02-28T07:57:56;7.20;;;7.20;;
71183;SDS011;58887;51.980;4.464;2023-02-28T08:00:23;9.14;;;9.14;;
71183;SDS011;58887;51.980;4.464;2023-02-28T08:02:48;10.62;;;10.62;;
71183;SDS011;58887;51.980;4.464;2023-02-28T08:05:14;13.34;;;13.34;;
71183;SDS011;58887;51.980;4.464;2023-02-28T08:07:43;7.98;;;7.98;;
71183;SDS011;58887;51.980;4.464;2023-02-28T08:10:16;7.49;;;7.49;;
71183;SDS011;58887;51.980;4.464;2023-02-28T08:12:43;6.36;;;6.36;;
71183;SDS011;58887;51.980;4.464;2023-02-28T08:15:09;4.55;;;4.55;;
71183;SDS011;58887;51.980;4.464;2023-02-28T08:17:35;4.24;;;4.24;;
71183;SDS011;58887;51.980;4.464;2023-02-28T08:20:01;4.36;;;4.36;;
71183;SDS011;58887;51.980;4.464;2023-02-28T08:22:26;4.11;;;4.11;;
71183;SDS011;58887;51.980;4.464;2023-02-28T08:24:52;4.31;;;4.31;;
71183;SDS011;58887;51.980;4.464;2023-02-28T08:27:17;5.03;;;5.03;;
71183;SDS011;58887;51.980;4.464;2023-02-28T08:29:43;5.86;;;5.86;;
71183;SDS011;58887;51.980;4.464;2023-02-28T08:32:08;5.46;;;5.46;;
71183;SDS011;58887;51.980;4.464;2023-02-28T08:34:34;4.61;;;4.61;;
71183;SDS011;58887;51.980;4.464;2023-02-28T08:36:59;4.65;;;4.65;;
71183;SDS011;58887;51.980;4.464;2023-02-28T08:39:25;4.48;;;4.48;;
71183;SDS011;58887;51.980;4.464;2023-02-28T08:41:51;4.38;;;4.38;;
71183;SDS011;58887;51.980;4.464;2023-02-28T08:44:16;5.37;;;5.37;;
71183;SDS011;58887;51.980;4.464;2023-02-28T08:46:41;6.02;;;6.02;;
71183;SDS011;58887;51.980;4.464;2023-02-28T08:49:09;4.87;;;4.87;;
71183;SDS011;58887;51.980;4.464;2023-02-28T08:51:35;6.53;;;6.53;;
71183;SDS011;58887;51.980;4.464;2023-02-28T08:54:07;9.31;;;9.31;;
71183;SDS011;58887;51.980;4.464;2023-02-28T08:56:33;12.11;;;12.11;;
71183;SDS011;58887;51.980;4.464;2023-02-28T08:58:59;15.15;;;15.15;;
71183;SDS011;58887;51.980;4.464;2023-02-28T09:01:28;23.46;;;23.46;;
71183;SDS011;58887;51.980;4.464;2023-02-28T09:03:55;21.62;;;21.62;;
71183;SDS011;58887;51.980;4.464;2023-02-28T09:06:22;31.71;;;31.71;;
71183;SDS011;58887;51.980;4.464;2023-02-28T09:08:49;58.21;;;58.21;;
71183;SDS011;58887;51.980;4.464;2023-02-28T09:11:16;83.41;;;83.41;;
71183;SDS011;58887;51.980;4.464;2023-02-28T09:13:42;41.39;;;41.39;;
71183;SDS011;58887;51.980;4.464;2023-02-28T09:16:08;24.33;;;24.33;;
71183;SDS011;58887;51.980;4.464;2023-02-28T09:18:37;70.94;;;70.94;;
71183;SDS011;58887;51.980;4.464;2023-02-28T09:21:04;131.63;;;131.63;;
71183;SDS011;58887;51.980;4.464;2023-02-28T09:23:30;174.41;;;174.41;;
71183;SDS011;58887;51.980;4.464;2023-02-28T09:25:56;176.53;;;176.53;;
71183;SDS011;58887;51.980;4.464;2023-02-28T09:28:22;257.68;;;257.68;;
71183;SDS011;58887;51.980;4.464;2023-02-28T09:30:49;223.64;;;223.64;;
71183;SDS011;58887;51.980;4.464;2023-02-28T09:33:17;240.58;;;240.58;;
71183;SDS011;58887;51.980;4.464;2023-02-28T09:35:46;238.39;;;238.39;;
71183;SDS011;58887;51.980;4.464;2023-02-28T09:38:12;226.26;;;226.26;;
71183;SDS011;58887;51.980;4.464;2023-02-28T09:40:57;143.91;;;143.91;;
71183;SDS011;58887;51.980;4.464;2023-02-28T09:43:26;258.58;;;258.58;;
71183;SDS011;58887;51.980;4.464;2023-02-28T09:48:44;121.71;;;121.71;;
71183;SDS011;58887;51.980;4.464;2023-02-28T09:52:14;140.49;;;140.49;;
71183;SDS011;58887;51.980;4.464;2023-02-28T09:54:23;119.40;;;119.40;;
71183;SDS011;58887;51.980;4.464;2023-02-28T09:56:53;91.06;;;91.06;;
71183;SDS011;58887;51.980;4.464;2023-02-28T10:02:17;81.60;;;81.60;;
71183;SDS011;58887;51.980;4.464;2023-02-28T10:12:53;4.22;;;4.22;;
71183;SDS011;58887;51.980;4.464;2023-02-28T10:15:24;4.54;;;4.54;;
71183;SDS011;58887;51.980;4.464;2023-02-28T10:18:00;28.61;;;28.61;;
71183;SDS011;58887;51.980;4.464;2023-02-28T10:20:32;47.85;;;47.85;;
71183;SDS011;58887;51.980;4.464;2023-02-28T10:23:04;33.30;;;33.30;;
71183;SDS011;58887;51.980;4.464;2023-02-28T10:25:36;5.92;;;5.92;;
71183;SDS011;58887;51.980;4.464;2023-02-28T10:28:13;4.36;;;4.36;;
71183;SDS011;58887;51.980;4.464;2023-02-28T10:30:50;3.62;;;3.62;;
71183;SDS011;58887;51.980;4.464;2023-02-28T10:33:21;7.17;;;7.17;;
71183;SDS011;58887;51.980;4.464;2023-02-28T10:35:59;8.92;;;8.92;;
71183;SDS011;58887;51.980;4.464;2023-02-28T10:38:28;7.36;;;7.36;;
71183;SDS011;58887;51.980;4.464;2023-02-28T10:41:09;6.94;;;6.94;;
71183;SDS011;58887;51.980;4.464;2023-02-28T10:43:38;6.81;;;6.81;;
71183;SDS011;58887;51.980;4.464;2023-02-28T10:48:38;8.23;;;8.23;;
71183;SDS011;58887;51.980;4.464;2023-02-28T10:51:07;18.39;;;18.39;;
71183;SDS011;58887;51.980;4.464;2023-02-28T10:56:19;9.55;;;9.55;;
71183;SDS011;58887;51.980;4.464;2023-02-28T10:58:56;27.66;;;27.66;;
71183;SDS011;58887;51.980;4.464;2023-02-28T11:01:35;6.81;;;6.81;;
71183;SDS011;58887;51.980;4.464;2023-02-28T11:04:02;3.92;;;3.92;;
71183;SDS011;58887;51.980;4.464;2023-02-28T11:06:32;3.21;;;3.21;;
71183;SDS011;58887;51.980;4.464;2023-02-28T11:09:00;2.97;;;2.97;;
71183;SDS011;58887;51.980;4.464;2023-02-28T11:11:41;3.27;;;3.27;;
71183;SDS011;58887;51.980;4.464;2023-02-28T11:17:19;3.01;;;3.01;;
71183;SDS011;58887;51.980;4.464;2023-02-28T11:19:50;2.26;;;2.26;;
71183;SDS011;58887;51.980;4.464;2023-02-28T11:22:20;2.30;;;2.30;;
71183;SDS011;58887;51.980;4.464;2023-02-28T11:24:50;2.34;;;2.34;;
71183;SDS011;58887;51.980;4.464;2023-02-28T11:29:59;2.35;;;2.35;;
71183;SDS011;58887;51.980;4.464;2023-02-28T11:32:29;2.43;;;2.43;;
71183;SDS011;58887;51.980;4.464;2023-02-28T11:35:30;2.16;;;2.16;;
71183;SDS011;58887;51.980;4.464;2023-02-28T11:37:51;2.02;;;2.02;;
71183;SDS011;58887;51.980;4.464;2023-02-28T11:40:23;1.81;;;1.81;;
71183;SDS011;58887;51.980;4.464;2023-02-28T11:43:09;1.78;;;1.78;;
71183;SDS011;58887;51.980;4.464;2023-02-28T11:51:48;2.03;;;2.03;;
71183;SDS011;58887;51.980;4.464;2023-02-28T11:57:27;2.06;;;2.06;;
71183;SDS011;58887;51.980;4.464;2023-02-28T12:00:08;2.21;;;2.21;;
71183;SDS011;58887;51.980;4.464;2023-02-28T12:16:44;2.07;;;2.07;;
71183;SDS011;58887;51.980;4.464;2023-02-28T12:28:14;1.72;;;1.72;;
71183;SDS011;58887;51.980;4.464;2023-02-28T12:33:28;1.64;;;1.64;;
71183;SDS011;58887;51.980;4.464;2023-02-28T12:36:01;2.04;;;2.04;;
71183;SDS011;58887;51.980;4.464;2023-02-28T12:41:39;1.83;;;1.83;;
71183;SDS011;58887;51.980;4.464;2023-02-28T12:44:18;1.93;;;1.93;;
71183;SDS011;58887;51.980;4.464;2023-02-28T12:47:00;2.15;;;2.15;;
71183;SDS011;58887;51.980;4.464;2023-02-28T12:49:46;1.99;;;1.99;;
71183;SDS011;58887;51.980;4.464;2023-02-28T13:00:38;1.65;;;1.65;;
71183;SDS011;58887;51.980;4.464;2023-02-28T13:11:44;1.75;;;1.75;;
71183;SDS011;58887;51.980;4.464;2023-02-28T13:19:46;1.74;;;1.74;;
71183;SDS011;58887;51.980;4.464;2023-02-28T13:24:54;1.68;;;1.68;;
71183;SDS011;58887;51.980;4.464;2023-02-28T13:27:22;1.47;;;1.47;;
71183;SDS011;58887;51.980;4.464;2023-02-28T13:38:54;1.99;;;1.99;;
71183;SDS011;58887;51.980;4.464;2023-02-28T13:49:19;1.79;;;1.79;;
71183;SDS011;58887;51.980;4.464;2023-02-28T14:05:20;2.13;;;2.13;;
71183;SDS011;58887;51.980;4.464;2023-02-28T14:07:52;1.85;;;1.85;;
71183;SDS011;58887;51.980;4.464;2023-02-28T14:10:25;1.79;;;1.79;;
71183;SDS011;58887;51.980;4.464;2023-02-28T14:12:59;1.91;;;1.91;;
71183;SDS011;58887;51.980;4.464;2023-02-28T14:18:33;1.97;;;1.97;;
71183;SDS011;58887;51.980;4.464;2023-02-28T14:21:11;1.91;;;1.91;;
71183;SDS011;58887;51.980;4.464;2023-02-28T14:26:56;2.24;;;2.24;;
71183;SDS011;58887;51.980;4.464;2023-02-28T14:38:48;2.12;;;2.12;;
71183;SDS011;58887;51.980;4.464;2023-02-28T14:44:21;2.47;;;2.47;;
71183;SDS011;58887;51.980;4.464;2023-02-28T14:46:49;2.17;;;2.17;;
71183;SDS011;58887;51.980;4.464;2023-02-28T14:49:35;2.17;;;2.17;;
71183;SDS011;58887;51.980;4.464;2023-02-28T14:54:52;1.97;;;1.97;;
71183;SDS011;58887;51.980;4.464;2023-02-28T14:57:28;1.99;;;1.99;;
71183;SDS011;58887;51.980;4.464;2023-02-28T15:02:44;2.19;;;2.19;;
71183;SDS011;58887;51.980;4.464;2023-02-28T15:07:38;2.20;;;2.20;;
71183;SDS011;58887;51.980;4.464;2023-02-28T15:12:54;1.86;;;1.86;;
71183;SDS011;58887;51.980;4.464;2023-02-28T15:15:26;1.64;;;1.64;;
71183;SDS011;58887;51.980;4.464;2023-02-28T15:18:05;1.96;;;1.96;;
71183;SDS011;58887;51.980;4.464;2023-02-28T15:20:32;1.84;;;1.84;;
71183;SDS011;58887;51.980;4.464;2023-02-28T15:23:07;1.80;;;1.80;;
71183;SDS011;58887;51.980;4.464;2023-02-28T15:25:34;1.81;;;1.81;;
71183;SDS011;58887;51.980;4.464;2023-02-28T15:28:00;1.89;;;1.89;;
71183;SDS011;58887;51.980;4.464;2023-02-28T15:30:31;1.91;;;1.91;;
71183;SDS011;58887;51.980;4.464;2023-02-28T15:33:01;1.84;;;1.84;;
71183;SDS011;58887;51.980;4.464;2023-02-28T15:35:32;2.32;;;2.32;;
71183;SDS011;58887;51.980;4.464;2023-02-28T15:43:31;2.34;;;2.34;;
71183;SDS011;58887;51.980;4.464;2023-02-28T15:46:10;15.71;;;15.71;;
71183;SDS011;58887;51.980;4.464;2023-02-28T15:51:29;2.02;;;2.02;;
71183;SDS011;58887;51.980;4.464;2023-02-28T15:54:19;2.37;;;2.37;;
71183;SDS011;58887;51.980;4.464;2023-02-28T15:57:03;2.45;;;2.45;;
71183;SDS011;58887;51.980;4.464;2023-02-28T15:59:44;2.08;;;2.08;;
71183;SDS011;58887;51.980;4.464;2023-02-28T16:02:19;2.27;;;2.27;;
71183;SDS011;58887;51.980;4.464;2023-02-28T16:07:23;2.21;;;2.21;;
71183;SDS011;58887;51.980;4.464;2023-02-28T16:09:51;2.16;;;2.16;;
71183;SDS011;58887;51.980;4.464;2023-02-28T16:12:25;2.45;;;2.45;;
71183;SDS011;58887;51.980;4.464;2023-02-28T16:14:57;3.18;;;3.18;;
71183;SDS011;58887;51.980;4.464;2023-02-28T16:17:31;3.00;;;3.00;;
71183;SDS011;58887;51.980;4.464;2023-02-28T16:20:00;2.70;;;2.70;;
71183;SDS011;58887;51.980;4.464;2023-02-28T16:22:27;2.71;;;2.71;;
71183;SDS011;58887;51.980;4.464;2023-02-28T16:24:53;2.59;;;2.59;;
71183;SDS011;58887;51.980;4.464;2023-02-28T16:27:32;2.63;;;2.63;;
71183;SDS011;58887;51.980;4.464;2023-02-28T16:30:05;2.68;;;2.68;;
71183;SDS011;58887;51.980;4.464;2023-02-28T16:32:35;2.82;;;2.82;;
71183;SDS011;58887;51.980;4.464;2023-02-28T16:35:02;2.71;;;2.71;;
71183;SDS011;58887;51.980;4.464;2023-02-28T16:37:28;2.94;;;2.94;;
71183;SDS011;58887;51.980;4.464;2023-02-28T16:39:55;3.09;;;3.09;;
71183;SDS011;58887;51.980;4.464;2023-02-28T16:42:25;2.95;;;2.95;;
71183;SDS011;58887;51.980;4.464;2023-02-28T16:45:02;3.02;;;3.02;;
71183;SDS011;58887;51.980;4.464;2023-02-28T16:47:30;4.24;;;4.24;;
71183;SDS011;58887;51.980;4.464;2023-02-28T16:52:33;2.93;;;2.93;;
71183;SDS011;58887;51.980;4.464;2023-02-28T16:54:59;3.03;;;3.03;;
71183;SDS011;58887;51.980;4.464;2023-02-28T16:57:25;2.88;;;2.88;;
71183;SDS011;58887;51.980;4.464;2023-02-28T17:02:20;3.16;;;3.16;;
71183;SDS011;58887;51.980;4.464;2023-02-28T17:04:47;3.38;;;3.38;;
71183;SDS011;58887;51.980;4.464;2023-02-28T17:07:14;2.95;;;2.95;;
71183;SDS011;58887;51.980;4.464;2023-02-28T17:09:45;4.21;;;4.21;;
71183;SDS011;58887;51.980;4.464;2023-02-28T17:12:13;3.38;;;3.38;;
71183;SDS011;58887;51.980;4.464;2023-02-28T17:14:39;3.39;;;3.39;;
71183;SDS011;58887;51.980;4.464;2023-02-28T17:17:29;4.06;;;4.06;;
71183;SDS011;58887;51.980;4.464;2023-02-28T17:19:56;3.81;;;3.81;;
71183;SDS011;58887;51.980;4.464;2023-02-28T17:22:21;3.31;;;3.31;;
71183;SDS011;58887;51.980;4.464;2023-02-28T17:29:57;3.93;;;3.93;;
71183;SDS011;58887;51.980;4.464;2023-02-28T17:32:22;5.25;;;5.25;;
71183;SDS011;58887;51.980;4.464;2023-02-28T17:34:52;8.67;;;8.67;;
71183;SDS011;58887;51.980;4.464;2023-02-28T17:37:18;6.65;;;6.65;;
71183;SDS011;58887;51.980;4.464;2023-02-28T17:39:44;10.12;;;10.12;;
71183;SDS011;58887;51.980;4.464;2023-02-28T17:42:17;7.43;;;7.43;;
71183;SDS011;58887;51.980;4.464;2023-02-28T17:44:44;9.57;;;9.57;;
71183;SDS011;58887;51.980;4.464;2023-02-28T17:47:10;13.83;;;13.83;;
71183;SDS011;58887;51.980;4.464;2023-02-28T17:49:37;13.00;;;13.00;;
71183;SDS011;58887;51.980;4.464;2023-02-28T17:52:02;7.09;;;7.09;;
71183;SDS011;58887;51.980;4.464;2023-02-28T17:54:28;7.71;;;7.71;;
71183;SDS011;58887;51.980;4.464;2023-02-28T17:57:04;6.78;;;6.78;;
71183;SDS011;58887;51.980;4.464;2023-02-28T18:02:00;7.64;;;7.64;;
71183;SDS011;58887;51.980;4.464;2023-02-28T18:04:26;6.64;;;6.64;;
71183;SDS011;58887;51.980;4.464;2023-02-28T18:06:59;9.45;;;9.45;;
71183;SDS011;58887;51.980;4.464;2023-02-28T18:09:25;5.68;;;5.68;;
71183;SDS011;58887;51.980;4.464;2023-02-28T18:11:52;10.19;;;10.19;;
71183;SDS011;58887;51.980;4.464;2023-02-28T18:14:20;8.46;;;8.46;;
71183;SDS011;58887;51.980;4.464;2023-02-28T18:16:48;8.77;;;8.77;;
71183;SDS011;58887;51.980;4.464;2023-02-28T18:19:15;13.04;;;13.04;;
71183;SDS011;58887;51.980;4.464;2023-02-28T18:21:45;9.34;;;9.34;;
71183;SDS011;58887;51.980;4.464;2023-02-28T18:24:13;6.40;;;6.40;;
71183;SDS011;58887;51.980;4.464;2023-02-28T18:26:40;5.50;;;5.50;;
71183;SDS011;58887;51.980;4.464;2023-02-28T18:29:07;5.97;;;5.97;;
71183;SDS011;58887;51.980;4.464;2023-02-28T18:31:33;5.26;;;5.26;;
71183;SDS011;58887;51.980;4.464;2023-02-28T18:34:00;5.44;;;5.44;;
71183;SDS011;58887;51.980;4.464;2023-02-28T18:36:26;4.79;;;4.79;;
71183;SDS011;58887;51.980;4.464;2023-02-28T18:38:59;4.67;;;4.67;;